Klamath Falls Airport
KLMT : now visible

Airfield :











YOU CAN JOIN US ON...

 
LOGIN :

Register | Disclaimer

   EN    FR    IT 

 









Legend :    VFR   Marginal VFR   IFR   Intensive IFR   Very Intensive IFR
Visi :
Ceiling :
>= 8 km
>= 3000ft
5 to 8 km
1000 to 3000 ft
1500m to 5 km
500 to 1000 ft
800 to 1500m
200 to 500 ft
< 800m
< 200 ft
Symbols :   Thunderstorms  Fog  Heavy snow  Heavy precipitations  Wind > 20 kt






- Airport Elevation : 4095 ft
- IATA code : LMT


KLMT - Klamath Falls

CURRENT METAR :
  • 310653Z AUTO 30004KT 10SM -RA BKN041 OVC048 09/07 A2998 RMK AO2 RAB51 SLP133 P0000 T00890067

EXPIRED METARs :
  • 310602Z AUTO 27009KT 10SM SCT029 OVC043 09/07 A2997 RMK AO2 T00940067
  • 310553Z 27009KT 10SM SCT023 BKN029 OVC043 09/07 A2997 RMK AO2 RAE39 SLP127 P0000 60002 T00940072 10144 20094 51010
  • 310528Z 28005KT 10SM -RA BKN021 OVC035 09/07 A2997 RMK AO2 P0000 T00940072
  • 310520Z 28007KT 10SM -RA SCT021 OVC035 09/07 A2997 RMK AO2 P0000 T00940067
  • 310453Z 27006KT 10SM -RA BKN029 BKN042 OVC049 10/08 A2996 RMK AO2 RAE19B51 SLP117 P0002 T01000078

TAF KLMT
Valid from the 31 at 06:00 until the 01 at 06:00 UTC


310520Z 3106/0106 25006KT P6SM -RA BKN025 OVC040
FM311000 23003KT P6SM BKN025 OVC040
FM311600 18006KT P6SM SCT040
FM010000 32007KT P6SM SCT050 BKN150
KZSE FIR / North America



MET'MAP, your aeronautical weather chart ! - Copyright ORBIFLY December 2007 - Disclaimer

ORBIFLY MET'MAP TEAM :

Programming & Development : Alexandra Zaïnal
Concept & original design : Baudouin d'Aumeries
Assistance for programming : Marc-Olivier Méhu
Technical & hardware support : Manuel Goepfert

Contact : metmap@orbifly.com




SOURCES & CREDITS :

   NOAA       Earth
Advisory